createdAt,value
2018-12-19T00:00:39.808Z,1017.90
2018-12-19T00:01:39.798Z,1017.90
2018-12-19T00:02:39.786Z,1017.85
2018-12-19T00:03:39.775Z,1017.84
2018-12-19T00:04:39.765Z,1017.88
2018-12-19T00:05:39.759Z,1017.87
2018-12-19T00:06:39.741Z,1017.87
2018-12-19T00:07:39.731Z,1017.86
2018-12-19T00:08:39.719Z,1017.88
2018-12-19T00:09:39.708Z,1017.84
2018-12-19T00:10:39.695Z,1017.88
2018-12-19T00:11:39.692Z,1017.81
2018-12-19T00:12:39.673Z,1017.79
2018-12-19T00:13:39.662Z,1017.82
2018-12-19T00:14:39.651Z,1017.83
2018-12-19T00:15:39.640Z,1017.79
2018-12-19T00:16:39.628Z,1017.78
2018-12-19T00:17:39.638Z,1017.78
2018-12-19T00:18:39.605Z,1017.73
2018-12-19T00:19:39.601Z,1017.79
2018-12-19T00:20:39.583Z,1017.79
2018-12-19T00:21:39.571Z,1017.80
2018-12-19T00:22:39.560Z,1017.80
2018-12-19T00:23:39.583Z,1017.83
2018-12-19T00:24:39.539Z,1017.86
2018-12-19T00:25:39.527Z,1017.83
2018-12-19T00:26:39.515Z,1017.84
2018-12-19T00:27:39.505Z,1017.81
2018-12-19T00:28:39.493Z,1017.83
2018-12-19T00:29:39.487Z,1017.79
2018-12-19T00:30:39.471Z,1017.78
2018-12-19T00:31:39.458Z,1017.79
2018-12-19T00:32:39.449Z,1017.82
2018-12-19T00:33:39.438Z,1017.78
2018-12-19T00:34:39.425Z,1017.78
2018-12-19T00:35:39.444Z,1017.76
2018-12-19T00:36:39.402Z,1017.81
2018-12-19T00:37:39.391Z,1017.77
2018-12-19T00:38:39.379Z,1017.76
2018-12-19T00:39:39.368Z,1017.74
2018-12-19T00:40:39.358Z,1017.69
2018-12-19T00:41:39.382Z,1017.70
2018-12-19T00:42:39.335Z,1017.67
2018-12-19T00:43:39.325Z,1017.65
2018-12-19T00:44:39.312Z,1017.62
2018-12-19T00:45:39.303Z,1017.51
2018-12-19T00:46:39.290Z,1017.53
2018-12-19T00:47:39.608Z,1017.53
2018-12-19T00:48:39.269Z,1017.55
2018-12-19T00:49:39.257Z,1017.56
2018-12-19T00:50:39.246Z,1017.57
2018-12-19T00:51:39.240Z,1017.56
2018-12-19T00:52:39.224Z,1017.55
2018-12-19T00:53:39.219Z,1017.56
2018-12-19T00:54:39.201Z,1017.59
2018-12-19T00:55:39.190Z,1017.65
2018-12-19T00:56:39.178Z,1017.64
2018-12-19T00:57:39.167Z,1017.59
2018-12-19T00:58:39.157Z,1017.63
2018-12-19T00:59:39.152Z,1017.63
2018-12-19T01:00:39.133Z,1017.63
2018-12-19T01:01:39.122Z,1017.59
2018-12-19T01:02:39.110Z,1017.64
2018-12-19T01:03:39.099Z,1017.62
2018-12-19T01:04:39.088Z,1017.62
2018-12-19T01:05:39.108Z,1017.58
2018-12-19T01:06:39.066Z,1017.59
2018-12-19T01:07:39.055Z,1017.59
2018-12-19T01:08:39.045Z,1017.61
2018-12-19T01:09:39.031Z,1017.63
2018-12-19T01:10:39.022Z,1017.60
2018-12-19T01:11:39.042Z,1017.62
2018-12-19T01:12:38.996Z,1017.56
2018-12-19T01:13:38.987Z,1017.59
2018-12-19T01:14:38.976Z,1017.57
2018-12-19T01:15:38.963Z,1017.59
2018-12-19T01:16:38.955Z,1017.55
2018-12-19T01:17:38.970Z,1017.52
2018-12-19T01:18:38.930Z,1017.50
2018-12-19T01:19:38.920Z,1017.50
2018-12-19T01:20:38.907Z,1017.47
2018-12-19T01:21:38.898Z,1017.42
2018-12-19T01:22:38.886Z,1017.44
2018-12-19T01:23:38.881Z,1017.40
2018-12-19T01:24:38.864Z,1017.40
2018-12-19T01:25:38.854Z,1017.44
2018-12-19T01:26:38.843Z,1017.38
2018-12-19T01:27:38.831Z,1017.42
2018-12-19T01:28:38.878Z,1017.45
2018-12-19T01:29:38.815Z,1017.44
2018-12-19T01:30:38.795Z,1017.42
2018-12-19T01:31:38.785Z,1017.49
2018-12-19T01:32:38.784Z,1017.49
2018-12-19T01:33:38.762Z,1017.42
2018-12-19T01:34:38.752Z,1017.41
2018-12-19T01:35:38.747Z,1017.37
2018-12-19T01:36:38.729Z,1017.35
2018-12-19T01:37:38.718Z,1017.36
2018-12-19T01:38:38.706Z,1017.34
2018-12-19T01:39:38.694Z,1017.34
2018-12-19T01:40:38.684Z,1017.43
2018-12-19T01:41:38.683Z,1017.34
2018-12-19T01:42:38.662Z,1017.44
2018-12-19T01:43:38.650Z,1017.43
2018-12-19T01:44:38.639Z,1017.50
2018-12-19T01:45:38.627Z,1017.41
2018-12-19T01:46:38.618Z,1017.42
2018-12-19T01:47:38.638Z,1017.45
2018-12-19T01:48:38.594Z,1017.35
2018-12-19T01:49:38.583Z,1017.36
2018-12-19T01:50:38.571Z,1017.39
2018-12-19T01:51:38.559Z,1017.38
2018-12-19T01:52:38.548Z,1017.43
2018-12-19T01:53:38.549Z,1017.42
2018-12-19T01:54:38.528Z,1017.45
2018-12-19T01:55:38.514Z,1017.44
2018-12-19T01:56:38.503Z,1017.48
2018-12-19T01:57:38.492Z,1017.45
2018-12-19T01:58:38.482Z,1017.43
2018-12-19T01:59:38.503Z,1017.41
2018-12-19T02:00:38.458Z,1017.35
2018-12-19T02:01:38.448Z,1017.37
2018-12-19T02:02:38.436Z,1017.34
2018-12-19T02:03:38.426Z,1017.31
2018-12-19T02:04:38.414Z,1017.33
2018-12-19T02:05:38.438Z,1017.31
2018-12-19T02:06:38.393Z,1017.30
2018-12-19T02:07:38.386Z,1017.24
2018-12-19T02:08:38.368Z,1017.29
2018-12-19T02:09:38.359Z,1017.29
2018-12-19T02:10:38.346Z,1017.30
2018-12-19T02:11:38.367Z,1017.30
2018-12-19T02:12:38.323Z,1017.28
2018-12-19T02:13:38.312Z,1017.27
2018-12-19T02:14:38.302Z,1017.21
2018-12-19T02:15:38.290Z,1017.22
2018-12-19T02:16:38.281Z,1017.18
2018-12-19T02:17:38.300Z,1017.11
2018-12-19T02:18:38.257Z,1017.12
2018-12-19T02:19:38.247Z,1017.15
2018-12-19T02:20:38.234Z,1017.12
2018-12-19T02:21:38.222Z,1017.07
2018-12-19T02:22:38.211Z,1017.08
2018-12-19T02:23:38.208Z,1017.06
2018-12-19T02:24:38.189Z,1017.07
2018-12-19T02:25:38.176Z,1017.02
2018-12-19T02:26:38.169Z,1017.04
2018-12-19T02:27:38.155Z,1017.05
2018-12-19T02:28:38.143Z,1017.08
2018-12-19T02:29:38.139Z,1017.08
2018-12-19T02:30:38.121Z,1017.07
2018-12-19T02:31:38.118Z,1017.09
2018-12-19T02:32:38.098Z,1017.06
2018-12-19T02:33:38.087Z,1017.06
2018-12-19T02:34:38.076Z,1016.99
2018-12-19T02:35:38.071Z,1017.05
2018-12-19T02:36:38.053Z,1016.95
2018-12-19T02:37:38.045Z,1016.93
2018-12-19T02:38:38.031Z,1016.90
2018-12-19T02:39:38.019Z,1016.93
2018-12-19T02:40:38.008Z,1016.86
2018-12-19T02:41:38.009Z,1016.88
2018-12-19T02:42:37.985Z,1016.85
2018-12-19T02:43:37.974Z,1016.84
2018-12-19T02:44:37.962Z,1016.82
2018-12-19T02:45:37.950Z,1016.84
2018-12-19T02:46:37.942Z,1016.83
2018-12-19T02:47:38.254Z,1016.83
2018-12-19T02:48:37.918Z,1016.80
2018-12-19T02:49:37.908Z,1016.79
2018-12-19T02:50:37.894Z,1016.79
2018-12-19T02:51:37.885Z,1016.82
2018-12-19T02:52:37.874Z,1016.81
2018-12-19T02:53:37.893Z,1016.84
2018-12-19T02:54:37.850Z,1016.78
2018-12-19T02:55:37.841Z,1016.80
2018-12-19T02:56:37.827Z,1016.80
2018-12-19T02:57:37.817Z,1016.81
2018-12-19T02:58:37.809Z,1016.79
2018-12-19T02:59:37.800Z,1016.80
2018-12-19T03:00:37.782Z,1016.77
2018-12-19T03:01:37.771Z,1016.74
2018-12-19T03:02:37.770Z,1016.72
2018-12-19T03:03:37.753Z,1016.73
2018-12-19T03:04:37.737Z,1016.72
2018-12-19T03:05:38.056Z,1016.69
2018-12-19T03:06:37.715Z,1016.69
2018-12-19T03:07:37.706Z,1016.70
2018-12-19T03:08:37.695Z,1016.66
2018-12-19T03:09:42.953Z,1016.67
2018-12-19T03:10:38.680Z,1016.65
2018-12-19T03:11:37.660Z,1016.69
2018-12-19T03:12:37.649Z,1016.62
2018-12-19T03:13:37.639Z,1016.64
2018-12-19T03:14:37.630Z,1016.67
2018-12-19T03:15:37.616Z,1016.68
2018-12-19T03:16:37.622Z,1016.65
2018-12-19T03:17:37.592Z,1016.67
2018-12-19T03:18:37.580Z,1016.64
2018-12-19T03:19:37.570Z,1016.65
2018-12-19T03:20:37.558Z,1016.62
2018-12-19T03:21:37.546Z,1016.62
2018-12-19T03:22:37.821Z,1016.63
2018-12-19T03:23:37.532Z,1016.64
2018-12-19T03:24:37.522Z,1016.61
2018-12-19T03:25:37.505Z,1016.60
2018-12-19T03:26:37.492Z,1016.59
2018-12-19T03:27:37.479Z,1016.55
2018-12-19T03:28:37.477Z,1016.53
2018-12-19T03:29:37.457Z,1016.58
2018-12-19T03:30:37.459Z,1016.57
2018-12-19T03:31:37.435Z,1016.58
2018-12-19T03:32:37.426Z,1016.57
2018-12-19T03:33:37.412Z,1016.58
2018-12-19T03:34:37.675Z,1016.57
2018-12-19T03:35:37.392Z,1016.59
2018-12-19T03:36:37.378Z,1016.53
2018-12-19T03:37:37.366Z,1016.55
2018-12-19T03:38:37.356Z,1016.57
2018-12-19T03:39:37.346Z,1016.53
2018-12-19T03:40:37.618Z,1016.57
2018-12-19T03:41:37.322Z,1016.57
2018-12-19T03:42:37.311Z,1016.56
2018-12-19T03:43:37.302Z,1016.55
2018-12-19T03:44:37.290Z,1016.58
2018-12-19T03:45:37.277Z,1016.58
2018-12-19T03:46:37.606Z,1016.54
2018-12-19T03:47:37.254Z,1016.53
2018-12-19T03:48:37.244Z,1016.51
2018-12-19T03:49:37.234Z,1016.48
2018-12-19T03:50:37.221Z,1016.49
2018-12-19T03:51:37.216Z,1016.52
2018-12-19T03:52:37.475Z,1016.51
2018-12-19T03:53:37.188Z,1016.51
2018-12-19T03:54:37.175Z,1016.52
2018-12-19T03:55:37.164Z,1016.54
2018-12-19T03:56:37.154Z,1016.57
2018-12-19T03:57:37.142Z,1016.59
2018-12-19T03:58:37.139Z,1016.60
2018-12-19T03:59:37.122Z,1016.58
2018-12-19T04:00:37.109Z,1016.58
2018-12-19T04:01:37.097Z,1016.51
2018-12-19T04:02:37.087Z,1016.51
2018-12-19T04:03:37.077Z,1016.43
2018-12-19T04:04:37.072Z,1016.47
2018-12-19T04:05:37.053Z,1016.44
2018-12-19T04:06:37.042Z,1016.43
2018-12-19T04:07:37.030Z,1016.48
2018-12-19T04:08:37.018Z,1016.46
2018-12-19T04:09:37.009Z,1016.48
2018-12-19T04:10:37.006Z,1016.46
2018-12-19T04:11:36.986Z,1016.40
2018-12-19T04:12:36.974Z,1016.41
2018-12-19T04:13:36.963Z,1016.39
2018-12-19T04:14:36.954Z,1016.34
2018-12-19T04:15:36.941Z,1016.32
2018-12-19T04:16:36.936Z,1016.33
2018-12-19T04:17:36.918Z,1016.33
2018-12-19T04:18:36.905Z,1016.28
2018-12-19T04:19:36.896Z,1016.24
2018-12-19T04:20:36.885Z,1016.28
2018-12-19T04:21:36.873Z,1016.23
2018-12-19T04:22:36.869Z,1016.21
2018-12-19T04:23:36.853Z,1016.20
2018-12-19T04:24:36.841Z,1016.16
2018-12-19T04:25:36.828Z,1016.18
2018-12-19T04:26:36.821Z,1016.18
2018-12-19T04:27:36.807Z,1016.16
2018-12-19T04:28:37.089Z,1016.15
2018-12-19T04:29:36.785Z,1016.13
2018-12-19T04:30:36.771Z,1016.08
2018-12-19T04:31:36.760Z,1016.00
2018-12-19T04:32:36.750Z,1015.95
2018-12-19T04:33:36.739Z,1015.99
2018-12-19T04:34:37.011Z,1015.91
2018-12-19T04:35:36.716Z,1015.89
2018-12-19T04:36:36.708Z,1015.88
2018-12-19T04:37:36.694Z,1015.90
2018-12-19T04:38:36.682Z,1015.88
2018-12-19T04:39:36.670Z,1015.87
2018-12-19T04:40:36.955Z,1015.85
2018-12-19T04:41:36.649Z,1015.84
2018-12-19T04:42:36.646Z,1015.88
2018-12-19T04:43:36.627Z,1015.88
2018-12-19T04:44:36.614Z,1015.93
2018-12-19T04:45:36.606Z,1015.89
2018-12-19T04:46:36.881Z,1015.84
2018-12-19T04:47:36.580Z,1015.82
2018-12-19T04:48:36.585Z,1015.78
2018-12-19T04:49:36.559Z,1015.74
2018-12-19T04:50:36.549Z,1015.74
2018-12-19T04:51:36.536Z,1015.72
2018-12-19T04:52:36.539Z,1015.74
2018-12-19T04:53:36.514Z,1015.70
2018-12-19T04:54:36.506Z,1015.68
2018-12-19T04:55:36.493Z,1015.64
2018-12-19T04:56:36.482Z,1015.59
2018-12-19T04:57:36.469Z,1015.57
2018-12-19T04:58:37.848Z,1015.53
2018-12-19T04:59:36.449Z,1015.53
2018-12-19T05:00:36.440Z,1015.49
2018-12-19T05:01:36.426Z,1015.48
2018-12-19T05:02:36.413Z,1015.50
2018-12-19T05:03:36.401Z,1015.48
2018-12-19T05:04:36.398Z,1015.44
2018-12-19T05:05:36.381Z,1015.45
2018-12-19T05:06:36.368Z,1015.48
2018-12-19T05:07:36.356Z,1015.45
2018-12-19T05:08:36.349Z,1015.49
2018-12-19T05:09:36.335Z,1015.48
2018-12-19T05:10:36.343Z,1015.47
2018-12-19T05:11:36.313Z,1015.45
2018-12-19T05:12:36.305Z,1015.42
2018-12-19T05:13:36.290Z,1015.46
2018-12-19T05:14:36.288Z,1015.43
2018-12-19T05:15:36.265Z,1015.44
2018-12-19T05:16:36.562Z,1015.38
2018-12-19T05:17:36.246Z,1015.35
2018-12-19T05:18:36.233Z,1015.35
2018-12-19T05:19:36.222Z,1015.32
2018-12-19T05:20:36.209Z,1015.31
2018-12-19T05:21:36.199Z,1015.30
2018-12-19T05:22:36.195Z,1015.31
2018-12-19T05:23:36.178Z,1015.29
2018-12-19T05:24:36.166Z,1015.30
2018-12-19T05:25:36.155Z,1015.29
2018-12-19T05:26:36.142Z,1015.35
2018-12-19T05:27:36.132Z,1015.29
2018-12-19T05:28:36.126Z,1015.26
2018-12-19T05:29:36.107Z,1015.26
2018-12-19T05:30:36.098Z,1015.26
2018-12-19T05:31:36.087Z,1015.28
2018-12-19T05:32:36.075Z,1015.28
2018-12-19T05:33:36.066Z,1015.25
2018-12-19T05:34:36.343Z,1015.26
2018-12-19T05:35:36.042Z,1015.19
2018-12-19T05:36:36.032Z,1015.20
2018-12-19T05:37:36.021Z,1015.21
2018-12-19T05:38:36.008Z,1015.16
2018-12-19T05:39:35.997Z,1015.21
2018-12-19T05:40:36.313Z,1015.20
2018-12-19T05:41:36.623Z,1015.16
2018-12-19T05:42:35.963Z,1015.26
2018-12-19T05:43:35.951Z,1015.27
2018-12-19T05:44:35.942Z,1015.24
2018-12-19T05:45:35.929Z,1015.29
2018-12-19T05:46:36.247Z,1015.23
2018-12-19T05:47:35.908Z,1015.23
2018-12-19T05:48:35.895Z,1015.29
2018-12-19T05:49:35.884Z,1015.27
2018-12-19T05:50:35.873Z,1015.22
2018-12-19T05:51:35.861Z,1015.24
2018-12-19T05:52:35.864Z,1015.26
2018-12-19T05:53:35.841Z,1015.27
2018-12-19T05:54:35.832Z,1015.26
2018-12-19T05:55:35.820Z,1015.23
2018-12-19T05:56:35.807Z,1015.24
2018-12-19T05:57:35.794Z,1015.26
2018-12-19T05:58:36.058Z,1015.26
2018-12-19T05:59:35.773Z,1015.22
2018-12-19T06:00:35.762Z,1015.13
2018-12-19T06:01:35.750Z,1015.20
2018-12-19T06:02:35.739Z,1015.19
2018-12-19T06:03:35.727Z,1015.16
2018-12-19T06:04:36.008Z,1015.20
2018-12-19T06:05:35.705Z,1015.19
2018-12-19T06:06:35.694Z,1015.21
2018-12-19T06:07:35.683Z,1015.23
2018-12-19T06:08:35.674Z,1015.28
2018-12-19T06:09:35.660Z,1015.25
2018-12-19T06:10:35.656Z,1015.30
2018-12-19T06:11:35.641Z,1015.27
2018-12-19T06:12:35.627Z,1015.25
2018-12-19T06:13:35.615Z,1015.27
2018-12-19T06:14:35.605Z,1015.23
2018-12-19T06:15:35.592Z,1015.18
2018-12-19T06:16:35.640Z,1015.19
2018-12-19T06:17:35.569Z,1015.19
2018-12-19T06:18:35.558Z,1015.11
2018-12-19T06:19:35.552Z,1015.09
2018-12-19T06:20:35.535Z,1015.08
2018-12-19T06:21:35.525Z,1015.08
2018-12-19T06:22:35.787Z,1015.07
2018-12-19T06:23:35.501Z,1015.03
2018-12-19T06:24:35.494Z,1015.05
2018-12-19T06:25:35.491Z,1014.99
2018-12-19T06:26:35.469Z,1014.98
2018-12-19T06:27:35.457Z,1014.92
2018-12-19T06:28:35.731Z,1014.90
2018-12-19T06:29:35.434Z,1014.89
2018-12-19T06:30:35.426Z,1014.93
2018-12-19T06:31:35.462Z,1014.93
2018-12-19T06:32:35.402Z,1014.86
2018-12-19T06:33:35.390Z,1014.88
2018-12-19T06:34:35.384Z,1014.94
2018-12-19T06:35:35.366Z,1014.98
2018-12-19T06:36:35.359Z,1015.01
2018-12-19T06:37:35.343Z,1015.05
2018-12-19T06:38:35.335Z,1015.07
2018-12-19T06:39:35.323Z,1014.98
2018-12-19T06:40:35.324Z,1015.01
2018-12-19T06:41:35.301Z,1015.02
2018-12-19T06:42:35.287Z,1014.98
2018-12-19T06:43:35.277Z,1015.01
2018-12-19T06:44:35.265Z,1015.07
2018-12-19T06:45:35.254Z,1015.03
2018-12-19T06:46:35.531Z,1015.06
2018-12-19T06:47:35.232Z,1015.00
2018-12-19T06:48:35.220Z,1015.05
2018-12-19T06:49:35.211Z,1015.04
2018-12-19T06:50:35.200Z,1015.07
2018-12-19T06:51:35.186Z,1015.04
2018-12-19T06:52:35.454Z,1015.05
2018-12-19T06:53:35.166Z,1015.00
2018-12-19T06:54:35.153Z,1015.06
2018-12-19T06:55:35.195Z,1015.05
2018-12-19T06:56:35.131Z,1015.07
2018-12-19T06:57:35.120Z,1015.08
2018-12-19T06:58:35.126Z,1015.06
2018-12-19T06:59:35.096Z,1015.06
2018-12-19T07:00:35.087Z,1015.11
2018-12-19T07:01:35.074Z,1015.08
2018-12-19T07:02:35.061Z,1015.15
2018-12-19T07:03:35.050Z,1015.11
2018-12-19T07:04:35.331Z,1015.07
2018-12-19T07:05:35.030Z,1015.09
2018-12-19T07:06:35.019Z,1015.11
2018-12-19T07:07:35.008Z,1015.14
2018-12-19T07:08:34.994Z,1015.16
2018-12-19T07:09:34.984Z,1015.12
2018-12-19T07:10:39.091Z,1015.11
2018-12-19T07:11:34.961Z,1015.14
2018-12-19T07:12:34.950Z,1015.18
2018-12-19T07:13:34.939Z,1015.17
2018-12-19T07:14:34.928Z,1015.11
2018-12-19T07:15:34.916Z,1015.11
2018-12-19T07:16:35.194Z,1015.10
2018-12-19T07:17:34.895Z,1015.11
2018-12-19T07:18:34.884Z,1015.09
2018-12-19T07:19:34.871Z,1015.11
2018-12-19T07:20:34.861Z,1015.06
2018-12-19T07:21:34.850Z,1015.04
2018-12-19T07:22:36.619Z,1015.05
2018-12-19T07:23:34.827Z,1015.05
2018-12-19T07:24:34.816Z,1015.06
2018-12-19T07:25:34.805Z,1015.09
2018-12-19T07:26:34.792Z,1015.08
2018-12-19T07:27:34.780Z,1015.08
2018-12-19T07:28:35.056Z,1015.05
2018-12-19T07:29:34.758Z,1015.12
2018-12-19T07:30:34.749Z,1015.12
2018-12-19T07:31:34.736Z,1015.10
2018-12-19T07:32:34.726Z,1015.12
2018-12-19T07:33:34.713Z,1015.11
2018-12-19T07:34:34.988Z,1015.11
2018-12-19T07:35:34.691Z,1015.08
2018-12-19T07:36:34.680Z,1015.01
2018-12-19T07:37:34.669Z,1015.01
2018-12-19T07:38:34.662Z,1014.99
2018-12-19T07:39:34.646Z,1014.98
2018-12-19T07:40:34.910Z,1015.01
2018-12-19T07:41:34.625Z,1015.01
2018-12-19T07:42:34.613Z,1014.97
2018-12-19T07:43:34.603Z,1015.01
2018-12-19T07:44:34.590Z,1014.98
2018-12-19T07:45:34.581Z,1015.00
2018-12-19T07:46:34.851Z,1015.01
2018-12-19T07:47:34.556Z,1015.01
2018-12-19T07:48:34.546Z,1015.01
2018-12-19T07:49:34.535Z,1015.03
2018-12-19T07:50:34.523Z,1015.08
2018-12-19T07:51:34.513Z,1015.07
2018-12-19T07:52:34.523Z,1015.08
2018-12-19T07:53:34.490Z,1015.06
2018-12-19T07:54:34.479Z,1015.05
2018-12-19T07:55:34.465Z,1015.06
2018-12-19T07:56:34.457Z,1015.05
2018-12-19T07:57:34.446Z,1015.00
2018-12-19T07:58:34.719Z,1014.99
2018-12-19T07:59:34.427Z,1015.02
2018-12-19T08:00:34.410Z,1015.00
2018-12-19T08:01:34.420Z,1015.04
2018-12-19T08:02:34.389Z,1015.07
2018-12-19T08:03:34.379Z,1015.04
2018-12-19T08:04:34.637Z,1015.01
2018-12-19T08:05:34.357Z,1014.97
2018-12-19T08:06:34.343Z,1014.95
2018-12-19T08:07:34.331Z,1014.91
2018-12-19T08:08:34.321Z,1014.88
2018-12-19T08:09:34.309Z,1014.86
2018-12-19T08:10:34.582Z,1014.83
2018-12-19T08:11:34.287Z,1014.81
2018-12-19T08:12:36.155Z,1014.80
2018-12-19T08:13:34.264Z,1014.78
2018-12-19T08:14:34.252Z,1014.84
2018-12-19T08:15:34.243Z,1014.76
2018-12-19T08:16:34.516Z,1014.76
2018-12-19T08:17:34.219Z,1014.78
2018-12-19T08:18:34.208Z,1014.76
2018-12-19T08:19:34.197Z,1014.78
2018-12-19T08:20:34.185Z,1014.74
2018-12-19T08:21:34.176Z,1014.76
2018-12-19T08:22:34.448Z,1014.76
2018-12-19T08:23:34.152Z,1014.79
2018-12-19T08:24:34.141Z,1014.77
2018-12-19T08:25:34.129Z,1014.84
2018-12-19T08:26:34.119Z,1014.84
2018-12-19T08:27:34.107Z,1014.88
2018-12-19T08:28:34.388Z,1014.80
2018-12-19T08:29:34.089Z,1014.79
2018-12-19T08:30:34.075Z,1014.75
2018-12-19T08:31:34.062Z,1014.72
2018-12-19T08:32:34.051Z,1014.69
2018-12-19T08:33:34.040Z,1014.73
2018-12-19T08:34:34.039Z,1014.72
2018-12-19T08:35:34.017Z,1014.63
2018-12-19T08:36:34.007Z,1014.71
2018-12-19T08:37:33.995Z,1014.69
2018-12-19T08:38:34.035Z,1014.73
2018-12-19T08:39:33.975Z,1014.69
2018-12-19T08:40:33.969Z,1014.74
2018-12-19T08:41:33.950Z,1014.78
2018-12-19T08:42:33.940Z,1014.75
2018-12-19T08:43:33.926Z,1014.82
2018-12-19T08:44:33.916Z,1014.82
2018-12-19T08:45:33.905Z,1014.86
2018-12-19T08:46:33.902Z,1014.75
2018-12-19T08:47:33.884Z,1014.81
2018-12-19T08:48:33.872Z,1014.81
2018-12-19T08:49:33.885Z,1014.77
2018-12-19T08:50:33.850Z,1014.77
2018-12-19T08:51:33.838Z,1014.76
2018-12-19T08:52:34.099Z,1014.80
2018-12-19T08:53:33.819Z,1014.77
2018-12-19T08:54:33.848Z,1014.67
2018-12-19T08:55:33.793Z,1014.67
2018-12-19T08:56:33.782Z,1014.69
2018-12-19T08:57:33.772Z,1014.66
2018-12-19T08:58:33.768Z,1014.68
2018-12-19T08:59:33.748Z,1014.72
2018-12-19T09:00:33.737Z,1014.71
2018-12-19T09:01:33.725Z,1014.74
2018-12-19T09:02:33.714Z,1014.77
2018-12-19T09:03:33.705Z,1014.78
2018-12-19T09:04:33.700Z,1014.78
2018-12-19T09:05:33.680Z,1014.75
2018-12-19T09:06:33.669Z,1014.78
2018-12-19T09:07:33.659Z,1014.76
2018-12-19T09:08:33.647Z,1014.77
2018-12-19T09:09:33.635Z,1014.80
2018-12-19T09:10:33.909Z,1014.80
2018-12-19T09:11:33.616Z,1014.76
2018-12-19T09:12:33.601Z,1014.80
2018-12-19T09:13:33.592Z,1014.79
2018-12-19T09:14:33.644Z,1014.79
2018-12-19T09:15:33.569Z,1014.79
2018-12-19T09:16:33.565Z,1014.74
2018-12-19T09:17:33.546Z,1014.79
2018-12-19T09:18:33.535Z,1014.79
2018-12-19T09:19:33.523Z,1014.79
2018-12-19T09:20:33.911Z,1014.83
2018-12-19T09:21:33.500Z,1014.80
2018-12-19T09:22:33.511Z,1014.88
2018-12-19T09:23:33.479Z,1014.80
2018-12-19T09:24:33.469Z,1014.81
2018-12-19T09:25:33.458Z,1014.79
2018-12-19T09:26:33.443Z,1014.80
2018-12-19T09:27:33.432Z,1014.75
2018-12-19T09:28:33.713Z,1014.74
2018-12-19T09:29:33.411Z,1014.64
2018-12-19T09:30:33.400Z,1014.62
2018-12-19T09:31:33.391Z,1014.51
2018-12-19T09:32:33.376Z,1014.52
2018-12-19T09:33:33.367Z,1014.55
2018-12-19T09:34:33.641Z,1014.53
2018-12-19T09:35:33.341Z,1014.52
2018-12-19T09:36:33.336Z,1014.50
2018-12-19T09:37:33.320Z,1014.46
2018-12-19T09:38:33.308Z,1014.47
2018-12-19T09:39:33.297Z,1014.45
2018-12-19T09:40:33.309Z,1014.43
2018-12-19T09:41:33.274Z,1014.39
2018-12-19T09:42:33.263Z,1014.40
2018-12-19T09:43:33.253Z,1014.40
2018-12-19T09:44:33.241Z,1014.31
2018-12-19T09:45:33.230Z,1014.35
2018-12-19T09:46:33.509Z,1014.36
2018-12-19T09:47:33.209Z,1014.36
2018-12-19T09:48:33.197Z,1014.30
2018-12-19T09:49:33.185Z,1014.33
2018-12-19T09:50:33.175Z,1014.34
2018-12-19T09:51:33.164Z,1014.34
2018-12-19T09:52:33.442Z,1014.24
2018-12-19T09:53:33.212Z,1014.23
2018-12-19T09:54:33.130Z,1014.23
2018-12-19T09:55:33.116Z,1014.29
2018-12-19T09:56:33.105Z,1014.23
2018-12-19T09:57:33.094Z,1014.18
2018-12-19T09:58:33.371Z,1014.24
2018-12-19T09:59:33.073Z,1014.22
2018-12-19T10:00:33.062Z,1014.21
2018-12-19T10:01:33.053Z,1014.16
2018-12-19T10:02:33.039Z,1014.09
2018-12-19T10:03:33.028Z,1014.08
2018-12-19T10:04:33.315Z,1014.03
2018-12-19T10:05:33.004Z,1013.98
2018-12-19T10:06:32.994Z,1013.94
2018-12-19T10:07:32.984Z,1013.99
2018-12-19T10:08:32.974Z,1013.95
2018-12-19T10:09:32.961Z,1013.91
2018-12-19T10:10:33.279Z,1013.91
2018-12-19T10:11:32.938Z,1013.93
2018-12-19T10:12:32.925Z,1013.90
2018-12-19T10:13:32.915Z,1013.88
2018-12-19T10:14:32.904Z,1013.91
2018-12-19T10:15:32.892Z,1013.96
2018-12-19T10:16:33.176Z,1013.95
2018-12-19T10:17:32.870Z,1013.95
2018-12-19T10:18:32.858Z,1013.93
2018-12-19T10:19:32.849Z,1013.96
2018-12-19T10:20:32.836Z,1014.03
2018-12-19T10:21:32.826Z,1014.04
2018-12-19T10:22:33.087Z,1014.08
2018-12-19T10:23:32.803Z,1014.07
2018-12-19T10:24:32.792Z,1014.14
2018-12-19T10:25:32.779Z,1014.01
2018-12-19T10:26:32.770Z,1014.10
2018-12-19T10:27:32.759Z,1014.19
2018-12-19T10:28:33.039Z,1014.22
2018-12-19T10:29:32.736Z,1014.16
2018-12-19T10:30:32.722Z,1014.19
2018-12-19T10:31:32.713Z,1014.18
2018-12-19T10:32:32.703Z,1014.20
2018-12-19T10:33:32.691Z,1014.19
2018-12-19T10:34:33.486Z,1014.20
2018-12-19T10:35:32.668Z,1014.17
2018-12-19T10:36:32.658Z,1014.17
2018-12-19T10:37:32.648Z,1014.03
2018-12-19T10:38:32.637Z,1014.08
2018-12-19T10:39:32.626Z,1014.01
2018-12-19T10:40:32.897Z,1014.02
2018-12-19T10:41:32.606Z,1014.06
2018-12-19T10:42:32.592Z,1014.00
2018-12-19T10:43:32.578Z,1014.04
2018-12-19T10:44:32.567Z,1014.09
2018-12-19T10:45:32.564Z,1014.07
2018-12-19T10:46:32.873Z,1014.10
2018-12-19T10:47:32.533Z,1014.09
2018-12-19T10:48:32.532Z,1013.99
2018-12-19T10:49:32.511Z,1013.93
2018-12-19T10:50:32.500Z,1013.93
2018-12-19T10:51:32.520Z,1013.94
2018-12-19T10:52:32.782Z,1013.97
2018-12-19T10:53:33.812Z,1013.91
2018-12-19T10:54:32.457Z,1013.88
2018-12-19T10:55:32.443Z,1013.88
2018-12-19T10:56:32.433Z,1013.90
2018-12-19T10:57:32.423Z,1013.88
2018-12-19T10:58:32.695Z,1013.88
2018-12-19T10:59:32.400Z,1013.87
2018-12-19T11:00:32.388Z,1013.78
2018-12-19T11:01:32.379Z,1013.70
2018-12-19T11:02:32.366Z,1013.77
2018-12-19T11:03:32.354Z,1013.69
2018-12-19T11:04:32.680Z,1013.71
2018-12-19T11:05:32.341Z,1013.62
2018-12-19T11:06:32.321Z,1013.65
2018-12-19T11:07:32.309Z,1013.65
2018-12-19T11:08:32.297Z,1013.66
2018-12-19T11:09:32.287Z,1013.68
2018-12-19T11:10:32.572Z,1013.64
2018-12-19T11:11:32.565Z,1013.58
2018-12-19T11:12:32.252Z,1013.56
2018-12-19T11:13:32.240Z,1013.59
2018-12-19T11:14:32.231Z,1013.56
2018-12-19T11:15:32.218Z,1013.46
2018-12-19T11:16:32.228Z,1013.53
2018-12-19T11:17:32.197Z,1013.60
2018-12-19T11:18:32.187Z,1013.59
2018-12-19T11:19:32.175Z,1013.57
2018-12-19T11:20:32.163Z,1013.58
2018-12-19T11:21:32.156Z,1013.61
2018-12-19T11:22:32.421Z,1013.55
2018-12-19T11:23:32.128Z,1013.51
2018-12-19T11:24:32.118Z,1013.52
2018-12-19T11:25:32.105Z,1013.48
2018-12-19T11:26:32.094Z,1013.46
2018-12-19T11:27:32.086Z,1013.49
2018-12-19T11:28:32.366Z,1013.43
2018-12-19T11:29:32.060Z,1013.43
2018-12-19T11:30:32.052Z,1013.38
2018-12-19T11:31:32.038Z,1013.45
2018-12-19T11:32:32.029Z,1013.44
2018-12-19T11:33:32.017Z,1013.42
2018-12-19T11:34:32.026Z,1013.41
2018-12-19T11:35:31.995Z,1013.46
2018-12-19T11:36:31.983Z,1013.38
2018-12-19T11:37:31.972Z,1013.33
2018-12-19T11:38:31.960Z,1013.32
2018-12-19T11:39:31.950Z,1013.39
2018-12-19T11:40:31.949Z,1013.31
2018-12-19T11:41:31.926Z,1013.30
2018-12-19T11:42:31.922Z,1013.27
2018-12-19T11:43:31.906Z,1013.25
2018-12-19T11:44:31.893Z,1013.33
2018-12-19T11:45:31.882Z,1013.27
2018-12-19T11:46:31.879Z,1013.26
2018-12-19T11:47:31.861Z,1013.33
2018-12-19T11:48:31.846Z,1013.29
2018-12-19T11:49:31.837Z,1013.30
2018-12-19T11:50:31.825Z,1013.32
2018-12-19T11:51:31.815Z,1013.29
2018-12-19T11:52:32.093Z,1013.29
2018-12-19T11:53:31.791Z,1013.31
2018-12-19T11:54:31.783Z,1013.30
2018-12-19T11:55:31.771Z,1013.24
2018-12-19T11:56:31.756Z,1013.25
2018-12-19T11:57:31.748Z,1013.17
2018-12-19T11:58:31.745Z,1013.25
2018-12-19T11:59:31.724Z,1013.21
2018-12-19T12:00:31.715Z,1013.29
2018-12-19T12:01:31.701Z,1013.22
2018-12-19T12:02:31.696Z,1013.27
2018-12-19T12:03:31.679Z,1013.21
2018-12-19T12:04:31.675Z,1013.26
2018-12-19T12:05:31.657Z,1013.27